Time;durP1;ratioP1;P1;durP2;ratioP2;P2;SDS_P1;SDS_P2;PMS_P1;PMS_P2;Temp;Humidity;BMP_temperature;BMP_pressure;BME280_temperature;BME280_humidity;BME280_pressure;Samples;Min_cycle;Max_cycle;Signal;HPM_P1;HPM_P2
2022/08/21 00:00:53;;;;;;;5.88;1.48;;;16.00;99.90;;;;;;4968656;28;20491;-59
2022/08/21 00:03:19;;;;;;;9.65;1.48;;;15.90;99.90;;;;;;4970037;28;20027;-59
2022/08/21 00:05:52;;;;;;;5.28;1.20;;;15.90;99.90;;;;;;4968808;28;20105;-59
2022/08/21 00:08:19;;;;;;;5.97;1.80;;;15.80;99.90;;;;;;4970577;28;20386;-59
2022/08/21 00:10:45;;;;;;;9.70;1.58;;;15.70;99.90;;;;;;4968575;28;20207;-59
2022/08/21 00:13:12;;;;;;;8.73;1.38;;;15.70;99.90;;;;;;4968598;28;20031;-59
2022/08/21 00:15:38;;;;;;;5.55;1.13;;;15.70;99.90;;;;;;4968906;28;20038;-59
2022/08/21 00:18:06;;;;;;;4.30;1.10;;;15.80;99.90;;;;;;4970559;28;20054;-59
2022/08/21 00:20:33;;;;;;;7.05;1.08;;;15.80;99.90;;;;;;4969864;28;20023;-59
2022/08/21 00:22:58;;;;;;;9.02;1.50;;;15.80;99.90;;;;;;4968078;28;20109;-58
2022/08/21 00:25:24;;;;;;;8.93;1.50;;;15.90;99.90;;;;;;4969819;28;20114;-59
2022/08/21 00:27:51;;;;;;;5.65;1.20;;;16.00;99.90;;;;;;4967455;28;20137;-59
2022/08/21 00:30:18;;;;;;;8.70;1.30;;;16.00;99.90;;;;;;4970380;28;20107;-59
2022/08/21 00:32:44;;;;;;;10.18;1.67;;;16.00;99.90;;;;;;4967305;28;20513;-58
2022/08/21 00:35:14;;;;;;;12.45;1.42;;;16.10;99.90;;;;;;4970396;28;20438;-58
2022/08/21 00:37:40;;;;;;;12.13;1.70;;;16.10;99.90;;;;;;4968021;28;20030;-59
2022/08/21 00:40:12;;;;;;;4.15;1.17;;;16.00;99.90;;;;;;4968351;28;20034;-59
2022/08/21 00:42:38;;;;;;;8.82;1.55;;;16.00;99.90;;;;;;4967185;28;20094;-59
2022/08/21 00:45:06;;;;;;;8.00;1.17;;;16.00;99.90;;;;;;4970369;28;20027;-59
2022/08/21 00:47:32;;;;;;;8.20;1.50;;;15.90;99.90;;;;;;4970411;28;20088;-59
2022/08/21 00:49:58;;;;;;;7.65;1.48;;;15.90;99.90;;;;;;4968420;28;20356;-59
2022/08/21 00:52:27;;;;;;;10.63;1.88;;;15.80;99.90;;;;;;4969310;28;20106;-58
2022/08/21 00:54:55;;;;;;;10.82;1.98;;;15.80;99.90;;;;;;4967587;28;20149;-59
2022/08/21 00:57:27;;;;;;;4.50;1.50;;;15.80;99.90;;;;;;4970047;28;20038;-58
2022/08/21 00:59:54;;;;;;;12.63;2.33;;;15.70;99.90;;;;;;4963938;28;20039;-59
2022/08/21 01:02:21;;;;;;;7.25;1.38;;;15.70;99.90;;;;;;4969482;28;20498;-59
2022/08/21 01:04:48;;;;;;;5.97;1.20;;;15.60;99.90;;;;;;4968293;28;20529;-59
2022/08/21 01:07:14;;;;;;;8.20;2.20;;;15.60;99.90;;;;;;4970172;28;20018;-58
2022/08/21 01:09:40;;;;;;;9.07;1.52;;;15.50;99.90;;;;;;4968183;28;20039;-58
2022/08/21 01:12:07;;;;;;;8.07;1.55;;;15.50;99.90;;;;;;4968727;28;20023;-59
2022/08/21 01:14:33;;;;;;;8.85;1.20;;;15.50;99.90;;;;;;4969412;28;20049;-58
2022/08/21 01:17:00;;;;;;;9.07;1.38;;;15.50;99.90;;;;;;4968387;28;20047;-58
2022/08/21 01:19:26;;;;;;;9.45;2.13;;;15.30;99.90;;;;;;4969707;28;20117;-58
2022/08/21 01:21:53;;;;;;;7.28;1.20;;;15.20;99.90;;;;;;4967139;28;20492;-59
2022/08/21 01:24:19;;;;;;;3.72;1.05;;;15.10;99.90;;;;;;4972737;28;20037;-58
2022/08/21 01:26:46;;;;;;;7.40;1.88;;;15.10;99.90;;;;;;4971126;28;20049;-58
2022/08/21 01:29:33;;;;;;;7.95;1.40;;;15.10;99.90;;;;;;4973332;28;20479;-58
2022/08/21 01:32:04;;;;;;;6.63;1.13;;;15.10;99.90;;;;;;4970346;28;20027;-58
2022/08/21 01:34:30;;;;;;;11.52;1.73;;;15.10;99.90;;;;;;4972922;28;20162;-58
2022/08/21 01:36:56;;;;;;;7.05;1.10;;;15.00;99.90;;;;;;4971848;28;20045;-58
2022/08/21 01:39:22;;;;;;;5.30;1.00;;;15.00;99.90;;;;;;4968553;28;20118;-58
2022/08/21 01:41:47;;;;;;;8.52;1.35;;;15.00;99.90;;;;;;4969854;28;20037;-58
2022/08/21 01:44:13;;;;;;;8.73;1.10;;;15.00;99.90;;;;;;4973367;28;20027;-58
2022/08/21 01:46:39;;;;;;;5.78;1.00;;;14.90;99.90;;;;;;4970837;28;20390;-58
2022/08/21 01:49:05;;;;;;;6.22;0.90;;;14.90;99.90;;;;;;4973122;28;20034;-59
2022/08/21 01:51:31;;;;;;;11.32;1.33;;;14.80;99.90;;;;;;4970973;28;20397;-57
2022/08/21 01:53:57;;;;;;;6.63;1.10;;;14.80;99.90;;;;;;4970554;28;20023;-58
2022/08/21 01:56:24;;;;;;;6.00;1.27;;;14.70;99.90;;;;;;4970975;28;20038;-59
2022/08/21 01:58:50;;;;;;;7.35;0.88;;;14.70;99.90;;;;;;4971248;28;20062;-58
2022/08/21 02:01:15;;;;;;;6.22;2.05;;;14.70;99.90;;;;;;4971741;28;20043;-59
2022/08/21 02:03:41;;;;;;;5.10;0.90;;;14.60;99.90;;;;;;4970910;28;20027;-58
2022/08/21 02:06:11;;;;;;;5.95;1.15;;;14.60;99.90;;;;;;4972869;28;20037;-59
2022/08/21 02:08:37;;;;;;;4.70;0.88;;;14.70;99.90;;;;;;4970896;28;20058;-58
2022/08/21 02:11:03;;;;;;;6.28;1.00;;;14.60;99.90;;;;;;4970697;28;20027;-58
2022/08/21 02:13:28;;;;;;;7.05;1.10;;;14.50;99.90;;;;;;4972077;28;20046;-57
2022/08/21 02:15:54;;;;;;;7.53;1.15;;;14.50;99.90;;;;;;4970751;28;20058;-58
2022/08/21 02:18:19;;;;;;;6.05;1.00;;;14.40;99.90;;;;;;4971971;28;20023;-58
2022/08/21 02:20:48;;;;;;;6.30;1.00;;;14.40;99.90;;;;;;4970396;28;20046;-58
2022/08/21 02:23:15;;;;;;;6.20;1.15;;;14.40;99.90;;;;;;4971349;28;20027;-58
2022/08/21 02:25:41;;;;;;;3.65;1.35;;;14.40;99.90;;;;;;4969778;28;20510;-58
2022/08/21 02:28:15;;;;;;;6.47;1.27;;;14.30;99.90;;;;;;4971827;28;20053;-58
2022/08/21 02:30:45;;;;;;;7.40;1.10;;;14.30;99.90;;;;;;4970092;28;20031;-58
2022/08/21 02:33:12;;;;;;;3.30;0.93;;;14.20;99.90;;;;;;4972057;28;20038;-58
2022/08/21 02:35:41;;;;;;;3.20;1.30;;;14.20;99.90;;;;;;4969458;28;20039;-58
2022/08/21 02:38:09;;;;;;;8.63;1.48;;;14.20;99.90;;;;;;4968345;28;20492;-58
2022/08/21 02:40:37;;;;;;;5.30;1.42;;;14.20;99.90;;;;;;4970619;28;20398;-59
2022/08/21 02:43:04;;;;;;;2.97;0.93;;;14.20;99.90;;;;;;4969206;28;20505;-57
2022/08/21 02:45:30;;;;;;;4.88;1.67;;;14.20;99.90;;;;;;4971430;28;20026;-59
2022/08/21 02:48:03;;;;;;;5.85;1.25;;;14.10;99.90;;;;;;4970369;28;20039;-58
2022/08/21 02:50:32;;;;;;;4.20;0.88;;;14.10;99.90;;;;;;4967868;28;20023;-58
2022/08/21 02:52:59;;;;;;;7.40;1.60;;;14.10;99.90;;;;;;4969161;28;20042;-58
2022/08/21 02:55:28;;;;;;;6.03;1.35;;;14.10;99.90;;;;;;4970840;28;20031;-58
2022/08/21 02:57:55;;;;;;;5.20;1.23;;;14.00;99.90;;;;;;4969714;28;20390;-60
2022/08/21 03:00:23;;;;;;;5.55;1.02;;;14.00;99.90;;;;;;4971441;28;20109;-60
2022/08/21 03:02:49;;;;;;;4.85;0.95;;;14.00;99.90;;;;;;4968699;28;20471;-59
2022/08/21 03:05:16;;;;;;;6.10;1.45;;;13.90;99.90;;;;;;4971985;28;20118;-60
2022/08/21 03:07:44;;;;;;;6.15;1.95;;;14.00;99.90;;;;;;4969802;28;20022;-60
2022/08/21 03:10:10;;;;;;;5.65;1.58;;;14.10;99.90;;;;;;4970600;28;20037;-59
2022/08/21 03:12:36;;;;;;;7.07;1.10;;;14.20;99.90;;;;;;4968547;28;20023;-60
2022/08/21 03:15:06;;;;;;;4.28;1.00;;;14.20;99.90;;;;;;4971441;28;20034;-60
2022/08/21 03:17:32;;;;;;;3.72;0.98;;;14.20;99.90;;;;;;4971076;28;20023;-58
2022/08/21 03:19:58;;;;;;;4.30;1.02;;;14.10;99.90;;;;;;4962655;28;20525;-57
2022/08/21 03:22:24;;;;;;;2.38;0.73;;;14.10;99.90;;;;;;4970433;28;20031;-57
2022/08/21 03:24:50;;;;;;;4.10;1.13;;;14.10;99.90;;;;;;4968801;28;20514;-58
2022/08/21 03:27:15;;;;;;;6.68;1.15;;;14.00;99.90;;;;;;4970858;28;20382;-55
2022/08/21 03:29:41;;;;;;;6.10;1.67;;;14.00;99.90;;;;;;4969121;28;20498;-58
2022/08/21 03:32:09;;;;;;;7.53;1.45;;;14.00;99.90;;;;;;4970124;28;20018;-57
2022/08/21 03:34:38;;;;;;;8.68;1.38;;;14.20;99.90;;;;;;4971161;28;20061;-58
2022/08/21 03:37:05;;;;;;;4.78;1.40;;;14.30;99.90;;;;;;4966285;28;20051;-58
2022/08/21 03:39:31;;;;;;;9.93;1.20;;;14.30;99.90;;;;;;4970778;28;20390;-58
2022/08/21 03:41:57;;;;;;;7.70;1.20;;;14.20;99.90;;;;;;4967502;28;20033;-58
2022/08/21 03:44:22;;;;;;;5.57;1.80;;;14.20;99.90;;;;;;4970449;28;20406;-58
2022/08/21 03:46:48;;;;;;;9.00;1.50;;;14.10;99.90;;;;;;4969340;28;20023;-58
2022/08/21 03:49:14;;;;;;;5.60;1.20;;;14.00;99.90;;;;;;4970798;28;20037;-58
2022/08/21 03:51:40;;;;;;;10.40;1.48;;;14.00;99.90;;;;;;4967045;28;20030;-58
2022/08/21 03:54:06;;;;;;;4.47;1.58;;;14.10;99.90;;;;;;4965190;28;20035;-58
2022/08/21 03:56:32;;;;;;;10.38;1.45;;;14.10;99.90;;;;;;4968393;28;20031;-59
2022/08/21 03:58:57;;;;;;;5.90;1.23;;;14.10;99.90;;;;;;4968801;28;20098;-58
2022/08/21 04:01:23;;;;;;;15.45;1.67;;;14.00;99.90;;;;;;4969036;28;20027;-58
2022/08/21 04:03:49;;;;;;;6.78;1.20;;;14.00;99.90;;;;;;4969083;28;20062;-58
2022/08/21 04:06:15;;;;;;;7.65;2.35;;;14.00;99.90;;;;;;4970367;28;20290;-58
2022/08/21 04:08:42;;;;;;;6.70;1.63;;;13.90;99.90;;;;;;4968781;28;20069;-59
2022/08/21 04:11:10;;;;;;;7.47;1.30;;;13.90;99.90;;;;;;4969207;28;20138;-59
2022/08/21 04:13:36;;;;;;;5.65;1.25;;;13.90;99.90;;;;;;4970869;28;20042;-58
2022/08/21 04:16:02;;;;;;;5.60;1.58;;;13.90;99.90;;;;;;4970679;28;20590;-59
2022/08/21 04:18:28;;;;;;;9.75;1.98;;;13.90;99.90;;;;;;4970614;28;20023;-59
2022/08/21 04:20:56;;;;;;;6.05;1.70;;;13.80;99.90;;;;;;4967136;28;20117;-60
2022/08/21 04:23:22;;;;;;;7.40;1.25;;;13.80;99.90;;;;;;4969698;28;20026;-59
2022/08/21 04:25:48;;;;;;;6.60;2.25;;;13.80;99.90;;;;;;4968733;28;20045;-59
2022/08/21 04:28:14;;;;;;;5.63;1.42;;;13.80;99.90;;;;;;4969964;28;20467;-59
2022/08/21 04:30:40;;;;;;;11.20;2.08;;;13.90;99.90;;;;;;4967968;28;20022;-59
2022/08/21 04:33:05;;;;;;;9.43;1.50;;;13.90;99.90;;;;;;4970464;28;20494;-59
2022/08/21 04:35:32;;;;;;;14.23;1.80;;;14.00;99.90;;;;;;4970202;28;20035;-59
2022/08/21 04:37:58;;;;;;;9.68;2.20;;;14.00;99.90;;;;;;4968789;28;20019;-59
2022/08/21 04:40:27;;;;;;;7.85;1.70;;;14.10;99.90;;;;;;4969996;28;20789;-60
2022/08/21 04:42:56;;;;;;;8.55;1.42;;;14.10;99.90;;;;;;4966764;28;20026;-59
2022/08/21 04:45:23;;;;;;;9.05;1.20;;;14.10;99.90;;;;;;4970243;28;20041;-59
2022/08/21 04:47:54;;;;;;;12.85;1.90;;;14.10;99.90;;;;;;4967475;28;20060;-59
2022/08/21 04:50:26;;;;;;;10.25;1.88;;;14.10;99.90;;;;;;4964474;28;20031;-59
2022/08/21 04:52:52;;;;;;;11.20;1.33;;;14.10;99.90;;;;;;4966899;28;20084;-59
2022/08/21 04:55:20;;;;;;;6.10;1.20;;;14.10;99.90;;;;;;4970069;28;20038;-58
2022/08/21 04:57:46;;;;;;;6.38;1.75;;;14.00;99.90;;;;;;4968383;28;20073;-59
2022/08/21 05:00:13;;;;;;;7.15;2.05;;;14.10;99.90;;;;;;4971929;28;20118;-59
2022/08/21 05:02:41;;;;;;;8.52;1.73;;;14.10;99.90;;;;;;4970863;28;20034;-57
2022/08/21 05:05:07;;;;;;;8.57;1.50;;;14.10;99.90;;;;;;4973318;28;20475;-58
2022/08/21 05:07:34;;;;;;;8.98;1.98;;;14.10;99.90;;;;;;4973525;28;20062;-58
2022/08/21 05:10:00;;;;;;;9.82;1.85;;;14.10;99.90;;;;;;4971016;28;20054;-59
2022/08/21 05:12:26;;;;;;;9.85;2.03;;;14.10;99.90;;;;;;4967199;28;20114;-59
2022/08/21 05:14:52;;;;;;;8.93;1.60;;;14.20;99.90;;;;;;4963579;28;20471;-59
2022/08/21 05:17:17;;;;;;;10.52;1.70;;;14.10;99.90;;;;;;4973733;28;20035;-59
2022/08/21 05:19:43;;;;;;;7.18;2.13;;;14.10;99.90;;;;;;4969886;28;20446;-59
2022/08/21 05:22:09;;;;;;;6.28;1.35;;;14.10;99.90;;;;;;4973826;28;20038;-58
2022/08/21 05:24:34;;;;;;;8.57;1.50;;;14.10;99.90;;;;;;4970913;28;20062;-59
2022/08/21 05:27:00;;;;;;;10.10;1.50;;;14.20;99.90;;;;;;4971499;28;20146;-59
2022/08/21 05:29:26;;;;;;;7.18;1.33;;;14.20;99.90;;;;;;4972043;28;20058;-59
2022/08/21 05:31:52;;;;;;;10.52;1.60;;;14.30;99.90;;;;;;4970656;28;20034;-59
2022/08/21 05:34:20;;;;;;;10.32;1.42;;;14.30;99.90;;;;;;4972100;28;20131;-59
2022/08/21 05:36:45;;;;;;;7.20;1.80;;;14.50;99.90;;;;;;4970641;28;20454;-59
2022/08/21 05:39:12;;;;;;;6.50;2.13;;;14.60;99.90;;;;;;4971100;28;20505;-59
2022/08/21 05:41:38;;;;;;;7.28;2.30;;;14.80;99.90;;;;;;4961666;28;20082;-59
2022/08/21 05:44:04;;;;;;;5.28;1.50;;;15.00;99.90;;;;;;4971922;28;20027;-59
2022/08/21 05:46:29;;;;;;;6.00;1.17;;;15.10;99.90;;;;;;4968987;28;20029;-59
2022/08/21 05:48:55;;;;;;;8.55;1.58;;;15.20;99.90;;;;;;4980353;28;20101;-59
2022/08/21 05:51:21;;;;;;;7.10;1.92;;;15.30;99.90;;;;;;4970805;28;20031;-59
2022/08/21 05:53:47;;;;;;;8.20;1.50;;;15.50;99.90;;;;;;4967487;28;20432;-59
2022/08/21 05:56:14;;;;;;;12.75;1.55;;;15.70;99.90;;;;;;4968743;28;20042;-57
2022/08/21 05:58:40;;;;;;;8.63;1.52;;;15.80;99.90;;;;;;4978790;28;20478;-59
2022/08/21 06:01:06;;;;;;;8.00;1.30;;;15.90;99.90;;;;;;4977598;28;20077;-60
2022/08/21 06:03:35;;;;;;;6.30;1.60;;;16.00;99.90;;;;;;4971583;28;20023;-60
2022/08/21 06:06:02;;;;;;;7.22;1.40;;;16.10;99.90;;;;;;4980063;28;20367;-60
2022/08/21 06:08:28;;;;;;;13.23;1.73;;;16.30;99.90;;;;;;4971166;28;20376;-57
2022/08/21 06:10:57;;;;;;;14.75;2.33;;;16.30;99.90;;;;;;4976037;28;20490;-60
2022/08/21 06:13:23;;;;;;;6.20;1.50;;;16.50;99.90;;;;;;4977043;28;20033;-59
2022/08/21 06:15:50;;;;;;;7.70;1.77;;;16.60;99.90;;;;;;4984498;28;20046;-60
2022/08/21 06:18:16;;;;;;;5.55;1.23;;;16.60;99.90;;;;;;4975055;28;20564;-60
2022/08/21 06:20:43;;;;;;;8.75;1.38;;;16.60;99.90;;;;;;4975520;28;20026;-59
2022/08/21 06:23:09;;;;;;;8.32;1.80;;;16.60;99.90;;;;;;4974751;28;20123;-59
2022/08/21 06:25:35;;;;;;;9.88;1.55;;;16.70;99.90;;;;;;4979510;28;20027;-58
2022/08/21 06:28:02;;;;;;;6.65;1.17;;;16.70;99.90;;;;;;4980790;28;20058;-58
2022/08/21 06:30:28;;;;;;;9.15;1.42;;;16.70;99.90;;;;;;4978966;28;20461;-58
2022/08/21 06:32:54;;;;;;;10.57;1.42;;;16.70;99.90;;;;;;4935091;28;1175058;-58
2022/08/21 06:35:20;;;;;;;5.95;1.23;;;16.70;99.90;;;;;;4977300;28;20526;-58
2022/08/21 06:37:45;;;;;;;8.90;1.52;;;16.80;99.90;;;;;;4978935;28;20138;-59
2022/08/21 06:40:11;;;;;;;8.23;1.58;;;16.90;99.90;;;;;;4983450;28;20057;-58
2022/08/21 06:42:38;;;;;;;5.45;1.67;;;16.90;99.90;;;;;;4981821;28;20105;-59
2022/08/21 06:45:04;;;;;;;6.10;1.63;;;17.00;99.90;;;;;;4980948;28;20022;-58
2022/08/21 06:47:30;;;;;;;5.15;1.73;;;17.10;99.90;;;;;;4970694;28;20436;-58
2022/08/21 06:49:55;;;;;;;7.85;1.83;;;17.20;99.90;;;;;;4985532;28;20066;-59
2022/08/21 06:52:21;;;;;;;8.65;2.50;;;17.30;99.90;;;;;;4970362;28;20117;-59
2022/08/21 06:54:47;;;;;;;4.38;1.08;;;17.50;99.90;;;;;;4961995;28;20360;-59
2022/08/21 06:57:13;;;;;;;9.88;2.08;;;17.60;99.90;;;;;;4970661;28;20486;-59
2022/08/21 06:59:38;;;;;;;9.43;2.15;;;17.70;99.90;;;;;;4968125;28;20089;-57
2022/08/21 07:02:04;;;;;;;6.63;1.15;;;17.90;99.90;;;;;;4970023;28;20034;-58
2022/08/21 07:04:30;;;;;;;11.63;1.63;;;17.90;99.90;;;;;;4972152;28;20034;-58
2022/08/21 07:06:56;;;;;;;17.38;2.10;;;17.90;99.90;;;;;;4973699;28;20038;-59
2022/08/21 07:09:21;;;;;;;9.32;2.40;;;18.00;99.90;;;;;;4970086;28;20026;-59
2022/08/21 07:11:51;;;;;;;4.93;1.48;;;18.10;99.90;;;;;;4969339;28;20023;-59
2022/08/21 07:14:17;;;;;;;9.02;1.67;;;18.10;99.90;;;;;;4969959;28;20030;-58
2022/08/21 07:16:43;;;;;;;8.32;1.67;;;18.20;99.90;;;;;;4972509;28;20082;-59
2022/08/21 07:19:08;;;;;;;6.82;1.10;;;18.10;99.90;;;;;;4968906;28;20061;-59
2022/08/21 07:21:34;;;;;;;9.57;1.60;;;18.20;99.90;;;;;;4970338;28;20081;-58
2022/08/21 07:24:00;;;;;;;13.40;2.17;;;18.20;99.90;;;;;;4968707;28;20031;-60
2022/08/21 07:26:25;;;;;;;8.65;1.60;;;18.40;99.90;;;;;;4970067;28;20390;-58
2022/08/21 07:28:52;;;;;;;9.82;1.35;;;18.40;99.90;;;;;;4968988;28;20026;-58
2022/08/21 07:31:20;;;;;;;6.57;1.65;;;18.50;99.90;;;;;;4969647;28;20023;-58
2022/08/21 07:33:46;;;;;;;9.23;1.60;;;18.70;99.90;;;;;;4967823;28;20407;-59
2022/08/21 07:36:11;;;;;;;11.13;1.63;;;18.70;99.90;;;;;;4969803;28;20066;-59
2022/08/21 07:38:37;;;;;;;10.85;2.50;;;18.90;99.90;;;;;;4967003;28;20054;-55
2022/08/21 07:41:12;;;;;;;13.70;5.07;;;18.90;99.90;;;;;;4970396;28;20035;-57
2022/08/21 07:43:38;;;;;;;15.48;4.78;;;18.90;99.90;;;;;;4967091;28;20021;-59
2022/08/21 07:46:04;;;;;;;14.60;5.03;;;18.90;99.90;;;;;;4968180;28;20034;-59
2022/08/21 07:48:29;;;;;;;14.23;4.05;;;18.90;99.90;;;;;;4970444;28;20077;-59
2022/08/21 07:50:55;;;;;;;8.60;2.85;;;18.90;99.90;;;;;;4968039;28;20026;-60
2022/08/21 07:53:21;;;;;;;15.60;2.83;;;18.90;99.90;;;;;;4973945;28;20031;-59
2022/08/21 07:55:46;;;;;;;9.10;2.20;;;18.80;99.90;;;;;;4973387;28;20049;-59
2022/08/21 07:58:12;;;;;;;7.97;2.95;;;19.00;99.90;;;;;;4963748;28;20202;-60
2022/08/21 08:00:39;;;;;;;10.98;2.60;;;19.00;99.90;;;;;;4968705;28;20121;-59
2022/08/21 08:03:05;;;;;;;7.47;2.22;;;19.00;99.90;;;;;;4969430;28;20395;-59
2022/08/21 08:05:32;;;;;;;10.50;1.83;;;19.00;99.90;;;;;;4961137;28;20026;-59
2022/08/21 08:07:58;;;;;;;6.68;1.70;;;19.00;99.90;;;;;;4967505;28;20043;-59
2022/08/21 08:10:24;;;;;;;5.43;1.77;;;19.00;99.90;;;;;;4965297;28;20039;-59
2022/08/21 08:12:54;;;;;;;9.07;1.80;;;19.10;99.90;;;;;;4965083;28;20031;-59
2022/08/21 08:15:23;;;;;;;10.43;1.85;;;19.00;99.90;;;;;;4968445;28;20062;-58
2022/08/21 08:17:49;;;;;;;11.00;2.00;;;19.00;99.90;;;;;;4968377;28;20038;-58
2022/08/21 08:20:18;;;;;;;12.07;2.15;;;19.10;99.90;;;;;;4970166;28;20031;-59
2022/08/21 08:22:44;;;;;;;11.82;1.60;;;19.10;99.90;;;;;;4963420;28;20046;-59
2022/08/21 08:25:12;;;;;;;7.93;2.30;;;19.10;99.90;;;;;;4969235;28;20038;-59
2022/08/21 08:27:38;;;;;;;4.25;1.73;;;19.20;99.90;;;;;;4967496;28;20034;-59
2022/08/21 08:30:06;;;;;;;10.82;1.98;;;19.30;99.90;;;;;;4969675;28;20448;-59
2022/08/21 08:32:32;;;;;;;14.00;1.92;;;19.30;99.90;;;;;;4968287;28;20019;-59
2022/08/21 08:34:58;;;;;;;9.30;1.40;;;19.40;99.90;;;;;;4972482;28;20042;-59
2022/08/21 08:37:23;;;;;;;15.80;4.72;;;19.30;99.90;;;;;;4972531;28;20810;-59
2022/08/21 08:39:49;;;;;;;5.30;1.75;;;19.30;99.90;;;;;;4972166;28;20467;-58
2022/08/21 08:42:27;;;;;;;10.57;1.73;;;19.30;99.90;;;;;;4973553;28;20045;-59
2022/08/21 08:45:08;;;;;;;8.60;1.30;;;19.30;99.90;;;;;;4967351;28;20025;-59
2022/08/21 08:47:42;;;;;;;7.37;1.77;;;19.40;99.90;;;;;;4973577;28;20410;-59
2022/08/21 08:50:15;;;;;;;8.75;1.83;;;19.50;99.90;;;;;;4973442;28;20031;-59
2022/08/21 08:53:05;;;;;;;9.15;2.17;;;19.60;99.90;;;;;;4971932;28;20054;-59
2022/08/21 08:55:38;;;;;;;11.32;1.67;;;19.70;99.90;;;;;;4973175;28;20042;-58
2022/08/21 08:58:04;;;;;;;7.78;1.25;;;19.90;99.90;;;;;;4965457;28;20037;-60
2022/08/21 09:00:31;;;;;;;7.15;1.48;;;20.20;99.90;;;;;;4973031;28;20023;-59
2022/08/21 09:02:59;;;;;;;10.13;1.33;;;20.50;99.90;;;;;;4969543;28;20851;-58
2022/08/21 09:05:27;;;;;;;10.50;1.65;;;20.80;99.90;;;;;;4972967;28;20042;-58
2022/08/21 09:08:10;;;;;;;10.15;2.60;;;20.90;99.90;;;;;;4971178;28;20501;-58
2022/08/21 09:11:00;;;;;;;9.23;2.53;;;20.80;99.90;;;;;;4972821;28;20104;-58
2022/08/21 09:13:41;;;;;;;9.35;1.80;;;20.60;99.90;;;;;;4968098;28;20125;-59
2022/08/21 09:16:27;;;;;;;9.43;1.98;;;20.30;99.90;;;;;;4967948;28;20137;-59
2022/08/21 09:19:26;;;;;;;6.72;1.48;;;20.20;99.90;;;;;;4971741;28;20442;-59
2022/08/21 09:22:13;;;;;;;9.55;1.67;;;20.00;99.90;;;;;;4967179;28;20038;-59
2022/08/21 09:24:54;;;;;;;12.45;2.58;;;20.00;99.90;;;;;;4970685;28;20019;-59
2022/08/21 09:27:22;;;;;;;9.25;1.63;;;20.00;99.90;;;;;;4972989;28;20375;-59
2022/08/21 09:29:50;;;;;;;10.35;1.40;;;20.30;99.90;;;;;;4971098;28;20363;-59
2022/08/21 09:32:18;;;;;;;12.10;1.63;;;20.50;99.90;;;;;;4970985;28;20035;-60
2022/08/21 09:35:24;;;;;;;11.05;1.70;;;20.70;99.90;;;;;;4969447;28;20486;-58
2022/08/21 09:38:02;;;;;;;10.50;1.85;;;21.10;99.90;;;;;;4958639;28;20039;-59
2022/08/21 09:40:30;;;;;;;9.15;1.85;;;21.40;99.90;;;;;;4971957;28;20023;-59
2022/08/21 09:43:17;;;;;;;6.72;1.42;;;21.50;99.90;;;;;;4969233;28;20045;-59
2022/08/21 09:45:45;;;;;;;9.57;1.95;;;21.50;99.90;;;;;;4968614;28;20027;-58
2022/08/21 09:48:24;;;;;;;11.63;1.63;;;21.50;99.90;;;;;;4971462;28;20026;-60
2022/08/21 09:50:51;;;;;;;4.80;1.20;;;21.80;99.90;;;;;;4970798;28;20026;-59
2022/08/21 09:53:19;;;;;;;8.18;1.92;;;22.00;99.90;;;;;;4977040;28;20093;-59
2022/08/21 09:58:45;;;;;;;12.93;1.88;;;22.50;99.90;;;;;;4968263;28;20041;-59
2022/08/21 10:01:18;;;;;;;8.23;1.13;;;22.50;99.90;;;;;;4978371;28;20031;-59
2022/08/21 10:03:44;;;;;;;6.85;1.15;;;22.70;99.90;;;;;;4970453;28;20023;-59
2022/08/21 10:06:20;;;;;;;6.32;1.38;;;22.80;99.90;;;;;;4972587;28;20113;-57
2022/08/21 10:08:45;;;;;;;6.63;1.48;;;22.40;99.90;;;;;;4961358;28;20059;-59
2022/08/21 10:11:16;;;;;;;10.70;1.42;;;22.50;99.90;;;;;;4969620;28;20050;-58
2022/08/21 10:14:02;;;;;;;5.55;1.10;;;22.40;99.90;;;;;;4970756;28;20042;-58
2022/08/21 10:16:48;;;;;;;6.32;1.20;;;22.30;99.90;;;;;;4964797;28;20035;-58
2022/08/21 10:19:25;;;;;;;15.75;2.28;;;22.20;99.90;;;;;;4971179;28;20035;-59
2022/08/21 10:22:06;;;;;;;6.80;1.30;;;22.10;99.90;;;;;;4966138;28;20065;-59
2022/08/21 10:24:40;;;;;;;10.52;1.30;;;22.20;99.90;;;;;;4971306;28;20031;-60
2022/08/21 10:27:22;;;;;;;6.90;1.25;;;22.20;99.90;;;;;;4970613;28;20394;-59
2022/08/21 10:29:48;;;;;;;19.80;1.70;;;22.20;99.90;;;;;;4963111;28;20027;-60
2022/08/21 10:32:50;;;;;;;7.65;1.92;;;22.30;99.90;;;;;;4970443;28;20023;-60
2022/08/21 10:35:30;;;;;;;11.75;1.50;;;22.20;99.90;;;;;;4965758;28;20042;-59
2022/08/21 10:38:24;;;;;;;10.75;1.50;;;22.50;99.90;;;;;;4964753;28;20861;-59
2022/08/21 10:40:59;;;;;;;8.02;1.67;;;22.20;99.90;;;;;;4965896;28;20022;-58
2022/08/21 10:43:59;;;;;;;8.07;1.15;;;22.70;99.90;;;;;;4960089;28;20042;-59
2022/08/21 10:46:27;;;;;;;9.80;1.60;;;23.00;99.90;;;;;;4978597;28;20038;-60
2022/08/21 10:48:58;;;;;;;6.55;1.13;;;23.40;99.90;;;;;;4969077;28;20035;-59
2022/08/21 10:51:38;;;;;;;11.88;1.52;;;23.60;99.90;;;;;;4971886;28;20038;-60
2022/08/21 10:54:37;;;;;;;11.43;2.60;;;23.30;99.90;;;;;;4968938;28;20110;-59
2022/08/21 10:57:11;;;;;;;5.50;1.38;;;23.40;99.90;;;;;;4963395;28;20442;-60
2022/08/21 11:00:00;;;;;;;10.63;2.38;;;23.40;99.90;;;;;;4967497;28;20031;-60
2022/08/21 11:02:36;;;;;;;10.25;1.63;;;23.40;99.90;;;;;;4971440;28;20056;-59
2022/08/21 11:05:10;;;;;;;7.57;1.50;;;22.90;99.90;;;;;;4969877;28;20085;-59
2022/08/21 11:07:37;;;;;;;8.82;1.58;;;22.80;99.90;;;;;;4970441;28;20066;-58
2022/08/21 11:10:28;;;;;;;9.10;1.52;;;22.70;99.90;;;;;;4969359;28;20070;-59
2022/08/21 11:13:07;;;;;;;11.37;1.20;;;22.80;99.90;;;;;;4968957;28;20035;-59
2022/08/21 11:16:20;;;;;;;8.45;1.15;;;22.90;99.90;;;;;;4971364;28;20039;-59
2022/08/21 11:19:09;;;;;;;5.90;1.38;;;23.20;99.90;;;;;;4954215;28;20023;-59
2022/08/21 11:21:56;;;;;;;4.53;1.20;;;23.30;99.90;;;;;;4960556;28;20031;-59
2022/08/21 11:24:58;;;;;;;9.73;1.67;;;23.30;99.90;;;;;;4960788;28;20031;-59
2022/08/21 11:27:26;;;;;;;9.05;1.27;;;23.60;99.90;;;;;;4951246;28;20035;-59
2022/08/21 11:29:55;;;;;;;5.32;1.30;;;23.40;99.90;;;;;;4951314;28;20514;-59
2022/08/21 11:32:46;;;;;;;10.73;1.63;;;23.60;99.90;;;;;;4966200;28;20483;-60
2022/08/21 11:35:21;;;;;;;11.10;1.55;;;23.50;99.90;;;;;;4948934;28;20031;-60
2022/08/21 11:38:11;;;;;;;11.73;1.45;;;23.90;99.90;;;;;;4948473;28;20053;-60
2022/08/21 11:41:05;;;;;;;5.38;1.38;;;23.90;99.90;;;;;;4953549;28;20050;-58
2022/08/21 11:43:43;;;;;;;6.03;1.27;;;24.10;99.90;;;;;;4961375;28;20495;-59
2022/08/21 11:46:39;;;;;;;12.38;1.95;;;24.00;99.90;;;;;;4957456;28;20026;-59
2022/08/21 11:49:51;;;;;;;12.73;2.33;;;24.20;99.90;;;;;;4961532;28;20035;-59
2022/08/21 11:52:33;;;;;;;11.10;2.28;;;24.00;99.90;;;;;;4967450;28;20521;-60
2022/08/21 11:55:41;;;;;;;7.45;0.90;;;24.10;99.90;;;;;;4959938;28;20035;-60
2022/08/21 11:58:25;;;;;;;9.75;1.15;;;24.30;99.90;;;;;;4963055;28;20487;-59
2022/08/21 12:00:55;;;;;;;6.15;1.30;;;24.30;99.90;;;;;;4966558;28;20113;-59
2022/08/21 12:03:33;;;;;;;6.88;0.88;;;24.40;99.90;;;;;;4970787;28;20546;-60
2022/08/21 12:06:14;;;;;;;6.47;1.70;;;24.30;99.90;;;;;;4966792;28;20109;-60
2022/08/21 12:08:42;;;;;;;3.72;0.90;;;24.50;99.90;;;;;;4967803;28;20486;-60
2022/08/21 12:11:28;;;;;;;9.05;1.85;;;24.40;99.90;;;;;;4970034;28;20063;-60
2022/08/21 12:13:59;;;;;;;9.93;1.52;;;24.50;99.90;;;;;;4965086;28;20026;-60
2022/08/21 12:16:37;;;;;;;6.90;1.33;;;24.10;99.90;;;;;;4969446;28;20039;-59
2022/08/21 12:19:28;;;;;;;8.30;1.48;;;24.50;99.90;;;;;;4962644;28;20280;-60
2022/08/21 12:22:01;;;;;;;6.20;1.05;;;24.60;99.90;;;;;;4959764;28;20081;-60
2022/08/21 12:24:26;;;;;;;9.05;1.30;;;24.60;99.90;;;;;;4970022;28;20035;-60
2022/08/21 12:27:14;;;;;;;8.65;1.23;;;24.40;99.90;;;;;;4963941;28;20035;-59
2022/08/21 12:29:47;;;;;;;8.52;1.30;;;24.50;99.90;;;;;;4965719;28;20046;-60
2022/08/21 12:32:13;;;;;;;10.02;2.17;;;24.50;99.90;;;;;;4970476;28;20113;-60
2022/08/21 12:34:44;;;;;;;10.55;1.45;;;24.50;99.90;;;;;;4964883;28;20162;-59
2022/08/21 12:37:20;;;;;;;7.90;1.83;;;24.50;99.90;;;;;;4965482;28;20034;-60
2022/08/21 12:39:50;;;;;;;6.25;1.48;;;24.40;99.90;;;;;;4968154;28;20466;-60
2022/08/21 12:42:17;;;;;;;9.10;1.33;;;24.50;99.90;;;;;;4972395;28;20077;-58
2022/08/21 12:45:10;;;;;;;9.20;1.52;;;24.50;99.90;;;;;;4975830;28;20019;-60
2022/08/21 12:47:55;;;;;;;4.85;1.38;;;24.50;99.90;;;;;;4965742;28;20422;-59
2022/08/21 12:50:33;;;;;;;8.38;1.88;;;24.20;99.90;;;;;;4973157;28;20457;-59
2022/08/21 12:53:14;;;;;;;5.60;1.98;;;24.30;99.90;;;;;;4979268;28;20030;-60
2022/08/21 12:55:42;;;;;;;8.90;1.40;;;24.00;99.90;;;;;;4971638;28;20030;-59
2022/08/21 12:58:19;;;;;;;8.30;1.88;;;23.90;99.90;;;;;;4974718;28;20034;-60
2022/08/21 13:01:12;;;;;;;7.50;1.15;;;23.80;99.90;;;;;;4969405;28;20078;-59
2022/08/21 13:03:40;;;;;;;8.75;1.40;;;23.80;99.90;;;;;;4966341;28;20030;-61
2022/08/21 13:06:06;;;;;;;6.05;1.20;;;23.60;99.90;;;;;;4977107;28;20034;-61